sensor_id;sensor_type;location;lat;lon;timestamp;temperature;humidity
17859;DHT22;35426;30.698;104.050;2023-02-28T00:01:07;13.90;99.90
17859;DHT22;35426;30.698;104.050;2023-02-28T00:03:43;13.90;99.90
17859;DHT22;35426;30.698;104.050;2023-02-28T00:06:23;14.00;99.90
17859;DHT22;35426;30.698;104.050;2023-02-28T00:09:00;13.90;99.90
17859;DHT22;35426;30.698;104.050;2023-02-28T00:11:39;13.90;99.90
17859;DHT22;35426;30.698;104.050;2023-02-28T00:14:20;13.80;99.90
17859;DHT22;35426;30.698;104.050;2023-02-28T00:17:03;13.80;99.90
17859;DHT22;35426;30.698;104.050;2023-02-28T00:19:41;13.90;99.90
17859;DHT22;35426;30.698;104.050;2023-02-28T00:22:20;13.90;99.90
17859;DHT22;35426;30.698;104.050;2023-02-28T00:24:56;13.90;99.90
17859;DHT22;35426;30.698;104.050;2023-02-28T00:27:35;13.90;99.90
17859;DHT22;35426;30.698;104.050;2023-02-28T00:30:13;13.90;99.90
17859;DHT22;35426;30.698;104.050;2023-02-28T00:32:50;14.00;99.90
17859;DHT22;35426;30.698;104.050;2023-02-28T00:35:26;14.00;99.90
17859;DHT22;35426;30.698;104.050;2023-02-28T00:38:04;14.00;99.90
17859;DHT22;35426;30.698;104.050;2023-02-28T00:40:42;14.10;99.90
17859;DHT22;35426;30.698;104.050;2023-02-28T00:43:24;14.10;99.90
17859;DHT22;35426;30.698;104.050;2023-02-28T00:46:06;14.10;99.90
17859;DHT22;35426;30.698;104.050;2023-02-28T00:48:43;14.00;99.90
17859;DHT22;35426;30.698;104.050;2023-02-28T00:51:21;14.00;99.90
17859;DHT22;35426;30.698;104.050;2023-02-28T00:54:00;14.00;99.90
17859;DHT22;35426;30.698;104.050;2023-02-28T00:56:35;14.10;99.90
17859;DHT22;35426;30.698;104.050;2023-02-28T00:59:15;14.10;99.90
17859;DHT22;35426;30.698;104.050;2023-02-28T01:01:53;14.00;99.90
17859;DHT22;35426;30.698;104.050;2023-02-28T01:04:30;14.00;99.90
17859;DHT22;35426;30.698;104.050;2023-02-28T01:07:07;14.10;99.90
17859;DHT22;35426;30.698;104.050;2023-02-28T01:09:49;14.10;99.90
17859;DHT22;35426;30.698;104.050;2023-02-28T01:12:28;13.90;99.90
17859;DHT22;35426;30.698;104.050;2023-02-28T01:15:11;14.00;99.90
17859;DHT22;35426;30.698;104.050;2023-02-28T01:17:47;14.00;99.90
17859;DHT22;35426;30.698;104.050;2023-02-28T01:20:28;14.00;99.90
17859;DHT22;35426;30.698;104.050;2023-02-28T01:23:04;13.90;99.90
17859;DHT22;35426;30.698;104.050;2023-02-28T01:25:41;13.90;99.90
17859;DHT22;35426;30.698;104.050;2023-02-28T01:28:17;14.00;99.90
17859;DHT22;35426;30.698;104.050;2023-02-28T01:31:03;14.00;99.90
17859;DHT22;35426;30.698;104.050;2023-02-28T01:33:41;13.90;99.90
17859;DHT22;35426;30.698;104.050;2023-02-28T01:36:21;13.80;99.90
17859;DHT22;35426;30.698;104.050;2023-02-28T01:38:59;13.90;99.90
17859;DHT22;35426;30.698;104.050;2023-02-28T01:41:36;13.90;99.90
17859;DHT22;35426;30.698;104.050;2023-02-28T01:47:21;14.00;99.90
17859;DHT22;35426;30.698;104.050;2023-02-28T01:50:00;14.00;99.90
17859;DHT22;35426;30.698;104.050;2023-02-28T01:52:39;14.10;99.90
17859;DHT22;35426;30.698;104.050;2023-02-28T01:55:17;14.10;99.90
17859;DHT22;35426;30.698;104.050;2023-02-28T01:57:57;14.10;99.90
17859;DHT22;35426;30.698;104.050;2023-02-28T02:00:36;14.10;99.90
17859;DHT22;35426;30.698;104.050;2023-02-28T02:03:19;14.10;99.90
17859;DHT22;35426;30.698;104.050;2023-02-28T02:05:55;14.20;99.90
17859;DHT22;35426;30.698;104.050;2023-02-28T02:08:31;14.30;99.90
17859;DHT22;35426;30.698;104.050;2023-02-28T02:11:19;14.30;99.90
17859;DHT22;35426;30.698;104.050;2023-02-28T02:14:21;14.20;99.90
17859;DHT22;35426;30.698;104.050;2023-02-28T02:17:18;14.30;99.90
17859;DHT22;35426;30.698;104.050;2023-02-28T02:20:32;14.40;99.90
17859;DHT22;35426;30.698;104.050;2023-02-28T02:26:47;14.40;99.90
17859;DHT22;35426;30.698;104.050;2023-02-28T02:36:01;14.60;99.90
17859;DHT22;35426;30.698;104.050;2023-02-28T02:38:47;14.60;99.90
17859;DHT22;35426;30.698;104.050;2023-02-28T02:41:32;14.60;99.90
17859;DHT22;35426;30.698;104.050;2023-02-28T02:44:15;14.70;99.90
17859;DHT22;35426;30.698;104.050;2023-02-28T02:46:58;14.60;99.90
17859;DHT22;35426;30.698;104.050;2023-02-28T02:49:38;14.70;99.90
17859;DHT22;35426;30.698;104.050;2023-02-28T02:52:22;14.80;99.90
17859;DHT22;35426;30.698;104.050;2023-02-28T02:55:01;14.70;99.90
17859;DHT22;35426;30.698;104.050;2023-02-28T02:57:44;14.70;99.90
17859;DHT22;35426;30.698;104.050;2023-02-28T03:00:26;14.90;99.90
17859;DHT22;35426;30.698;104.050;2023-02-28T03:03:14;15.00;99.90
17859;DHT22;35426;30.698;104.050;2023-02-28T03:06:02;14.90;99.90
17859;DHT22;35426;30.698;104.050;2023-02-28T03:08:49;14.90;99.90
17859;DHT22;35426;30.698;104.050;2023-02-28T03:11:26;15.00;99.90
17859;DHT22;35426;30.698;104.050;2023-02-28T03:14:12;15.00;99.90
17859;DHT22;35426;30.698;104.050;2023-02-28T03:20:12;15.00;99.90
17859;DHT22;35426;30.698;104.050;2023-02-28T03:23:05;15.10;99.90
17859;DHT22;35426;30.698;104.050;2023-02-28T03:25:56;15.20;99.90
17859;DHT22;35426;30.698;104.050;2023-02-28T03:28:37;15.10;99.90
17859;DHT22;35426;30.698;104.050;2023-02-28T03:31:22;15.20;99.90
17859;DHT22;35426;30.698;104.050;2023-02-28T03:34:08;15.30;99.90
17859;DHT22;35426;30.698;104.050;2023-02-28T03:36:50;15.50;99.90
17859;DHT22;35426;30.698;104.050;2023-02-28T03:39:36;15.50;99.90
17859;DHT22;35426;30.698;104.050;2023-02-28T03:42:18;15.40;99.90
17859;DHT22;35426;30.698;104.050;2023-02-28T03:44:57;15.30;99.90
17859;DHT22;35426;30.698;104.050;2023-02-28T03:47:39;15.40;99.90
17859;DHT22;35426;30.698;104.050;2023-02-28T03:50:20;15.40;99.90
17859;DHT22;35426;30.698;104.050;2023-02-28T03:53:01;15.30;99.90
17859;DHT22;35426;30.698;104.050;2023-02-28T03:55:43;15.30;99.90
17859;DHT22;35426;30.698;104.050;2023-02-28T03:58:38;15.40;99.90
17859;DHT22;35426;30.698;104.050;2023-02-28T04:01:25;15.30;99.90
17859;DHT22;35426;30.698;104.050;2023-02-28T04:04:03;15.40;99.90
17859;DHT22;35426;30.698;104.050;2023-02-28T04:06:44;15.60;99.90
17859;DHT22;35426;30.698;104.050;2023-02-28T04:09:36;15.60;99.90
17859;DHT22;35426;30.698;104.050;2023-02-28T04:12:16;15.70;99.90
17859;DHT22;35426;30.698;104.050;2023-02-28T04:14:58;15.80;99.90
17859;DHT22;35426;30.698;104.050;2023-02-28T04:17:35;16.00;99.90
17859;DHT22;35426;30.698;104.050;2023-02-28T04:20:13;16.10;99.90
17859;DHT22;35426;30.698;104.050;2023-02-28T04:22:52;16.10;99.90
17859;DHT22;35426;30.698;104.050;2023-02-28T04:25:34;16.00;99.90
17859;DHT22;35426;30.698;104.050;2023-02-28T04:28:13;15.80;99.90
17859;DHT22;35426;30.698;104.050;2023-02-28T04:30:56;15.70;99.90
17859;DHT22;35426;30.698;104.050;2023-02-28T04:33:39;15.70;99.90
17859;DHT22;35426;30.698;104.050;2023-02-28T04:36:16;15.80;99.90
17859;DHT22;35426;30.698;104.050;2023-02-28T04:38:54;16.00;99.90
17859;DHT22;35426;30.698;104.050;2023-02-28T04:41:33;15.90;99.90
17859;DHT22;35426;30.698;104.050;2023-02-28T04:44:11;15.60;99.90
17859;DHT22;35426;30.698;104.050;2023-02-28T04:46:56;15.40;99.90
17859;DHT22;35426;30.698;104.050;2023-02-28T04:49:36;15.60;99.90
17859;DHT22;35426;30.698;104.050;2023-02-28T04:52:14;15.70;99.90
17859;DHT22;35426;30.698;104.050;2023-02-28T04:54:50;15.90;99.90
17859;DHT22;35426;30.698;104.050;2023-02-28T04:57:33;15.90;99.90
17859;DHT22;35426;30.698;104.050;2023-02-28T05:00:12;15.90;99.90
17859;DHT22;35426;30.698;104.050;2023-02-28T05:02:53;15.80;99.90
17859;DHT22;35426;30.698;104.050;2023-02-28T05:05:34;15.70;99.90
17859;DHT22;35426;30.698;104.050;2023-02-28T05:08:12;15.80;99.90
17859;DHT22;35426;30.698;104.050;2023-02-28T05:10:57;15.70;99.90
17859;DHT22;35426;30.698;104.050;2023-02-28T05:13:35;15.60;99.90
17859;DHT22;35426;30.698;104.050;2023-02-28T05:16:20;15.50;99.90
17859;DHT22;35426;30.698;104.050;2023-02-28T05:18:59;15.60;99.90
17859;DHT22;35426;30.698;104.050;2023-02-28T05:21:36;15.60;99.90
17859;DHT22;35426;30.698;104.050;2023-02-28T05:24:14;15.40;99.90
17859;DHT22;35426;30.698;104.050;2023-02-28T05:26:55;15.30;99.90
17859;DHT22;35426;30.698;104.050;2023-02-28T05:29:34;15.50;99.90
17859;DHT22;35426;30.698;104.050;2023-02-28T05:32:17;15.80;99.90
17859;DHT22;35426;30.698;104.050;2023-02-28T05:34:59;15.90;99.90
17859;DHT22;35426;30.698;104.050;2023-02-28T05:37:36;15.90;99.90
17859;DHT22;35426;30.698;104.050;2023-02-28T05:40:13;15.70;99.90
17859;DHT22;35426;30.698;104.050;2023-02-28T05:42:50;15.90;99.90
17859;DHT22;35426;30.698;104.050;2023-02-28T05:45:27;15.90;99.90
17859;DHT22;35426;30.698;104.050;2023-02-28T05:48:06;15.80;99.90
17859;DHT22;35426;30.698;104.050;2023-02-28T05:50:50;15.80;99.90
17859;DHT22;35426;30.698;104.050;2023-02-28T05:53:34;15.80;99.90
17859;DHT22;35426;30.698;104.050;2023-02-28T05:56:13;15.70;99.90
17859;DHT22;35426;30.698;104.050;2023-02-28T05:58:51;15.50;99.90
17859;DHT22;35426;30.698;104.050;2023-02-28T06:01:37;15.60;99.90
17859;DHT22;35426;30.698;104.050;2023-02-28T06:04:21;15.50;99.90
17859;DHT22;35426;30.698;104.050;2023-02-28T06:07:15;15.60;99.90
17859;DHT22;35426;30.698;104.050;2023-02-28T06:09:54;15.50;99.90
17859;DHT22;35426;30.698;104.050;2023-02-28T06:12:32;15.50;99.90
17859;DHT22;35426;30.698;104.050;2023-02-28T06:15:12;15.20;99.90
17859;DHT22;35426;30.698;104.050;2023-02-28T06:17:52;15.20;99.90
17859;DHT22;35426;30.698;104.050;2023-02-28T06:20:29;15.50;99.90
17859;DHT22;35426;30.698;104.050;2023-02-28T06:23:12;15.60;99.90
17859;DHT22;35426;30.698;104.050;2023-02-28T06:25:49;15.60;99.90
17859;DHT22;35426;30.698;104.050;2023-02-28T06:28:28;15.50;99.90
17859;DHT22;35426;30.698;104.050;2023-02-28T06:31:14;15.40;99.90
17859;DHT22;35426;30.698;104.050;2023-02-28T06:33:55;15.50;99.90
17859;DHT22;35426;30.698;104.050;2023-02-28T06:36:36;15.50;99.90
17859;DHT22;35426;30.698;104.050;2023-02-28T06:39:21;15.50;99.90
17859;DHT22;35426;30.698;104.050;2023-02-28T06:41:58;15.50;99.90
17859;DHT22;35426;30.698;104.050;2023-02-28T06:44:35;15.50;99.90
17859;DHT22;35426;30.698;104.050;2023-02-28T06:47:11;15.60;99.90
17859;DHT22;35426;30.698;104.050;2023-02-28T06:49:48;15.70;99.90
17859;DHT22;35426;30.698;104.050;2023-02-28T06:52:26;15.70;99.90
17859;DHT22;35426;30.698;104.050;2023-02-28T06:55:07;15.60;99.90
17859;DHT22;35426;30.698;104.050;2023-02-28T06:57:44;15.60;99.90
17859;DHT22;35426;30.698;104.050;2023-02-28T07:00:24;15.40;99.90
17859;DHT22;35426;30.698;104.050;2023-02-28T07:03:01;15.40;99.90
17859;DHT22;35426;30.698;104.050;2023-02-28T07:05:39;15.30;99.90
17859;DHT22;35426;30.698;104.050;2023-02-28T07:08:16;15.40;99.90
17859;DHT22;35426;30.698;104.050;2023-02-28T07:10:58;15.30;99.90
17859;DHT22;35426;30.698;104.050;2023-02-28T07:13:37;15.30;99.90
17859;DHT22;35426;30.698;104.050;2023-02-28T07:16:20;15.40;99.90
17859;DHT22;35426;30.698;104.050;2023-02-28T07:19:02;15.50;99.90
17859;DHT22;35426;30.698;104.050;2023-02-28T07:21:42;15.50;99.90
17859;DHT22;35426;30.698;104.050;2023-02-28T07:24:23;15.50;99.90
17859;DHT22;35426;30.698;104.050;2023-02-28T07:27:07;15.60;99.90
17859;DHT22;35426;30.698;104.050;2023-02-28T07:29:47;15.80;99.90
17859;DHT22;35426;30.698;104.050;2023-02-28T07:32:31;15.40;99.90
17859;DHT22;35426;30.698;104.050;2023-02-28T07:35:10;15.50;99.90
17859;DHT22;35426;30.698;104.050;2023-02-28T07:37:48;15.50;99.90
17859;DHT22;35426;30.698;104.050;2023-02-28T07:40:24;15.40;99.90
17859;DHT22;35426;30.698;104.050;2023-02-28T07:43:05;15.40;99.90
17859;DHT22;35426;30.698;104.050;2023-02-28T07:45:48;15.70;99.90
17859;DHT22;35426;30.698;104.050;2023-02-28T07:48:31;15.60;99.90
17859;DHT22;35426;30.698;104.050;2023-02-28T07:51:08;15.60;99.90
17859;DHT22;35426;30.698;104.050;2023-02-28T07:53:50;15.70;99.90
17859;DHT22;35426;30.698;104.050;2023-02-28T07:56:28;15.50;99.90
17859;DHT22;35426;30.698;104.050;2023-02-28T07:59:08;15.50;99.90
17859;DHT22;35426;30.698;104.050;2023-02-28T08:01:45;15.40;99.90
17859;DHT22;35426;30.698;104.050;2023-02-28T08:04:23;15.30;99.90
17859;DHT22;35426;30.698;104.050;2023-02-28T08:07:05;15.30;99.90
17859;DHT22;35426;30.698;104.050;2023-02-28T08:09:47;15.40;99.90
17859;DHT22;35426;30.698;104.050;2023-02-28T08:12:26;15.50;99.90
17859;DHT22;35426;30.698;104.050;2023-02-28T08:15:10;15.70;99.90
17859;DHT22;35426;30.698;104.050;2023-02-28T08:17:49;15.60;99.90
17859;DHT22;35426;30.698;104.050;2023-02-28T08:20:28;15.70;99.90
17859;DHT22;35426;30.698;104.050;2023-02-28T08:23:10;15.90;99.90
17859;DHT22;35426;30.698;104.050;2023-02-28T08:25:54;16.00;99.90
17859;DHT22;35426;30.698;104.050;2023-02-28T08:28:36;15.90;99.90
17859;DHT22;35426;30.698;104.050;2023-02-28T08:31:15;15.90;99.90
17859;DHT22;35426;30.698;104.050;2023-02-28T08:33:54;15.70;99.90
17859;DHT22;35426;30.698;104.050;2023-02-28T08:36:33;15.50;99.90
17859;DHT22;35426;30.698;104.050;2023-02-28T08:39:11;15.50;99.90
17859;DHT22;35426;30.698;104.050;2023-02-28T08:41:49;15.60;99.90
17859;DHT22;35426;30.698;104.050;2023-02-28T08:44:37;15.40;99.90
17859;DHT22;35426;30.698;104.050;2023-02-28T08:47:16;15.40;99.90
17859;DHT22;35426;30.698;104.050;2023-02-28T08:49:53;15.30;99.90
17859;DHT22;35426;30.698;104.050;2023-02-28T08:52:29;15.30;99.90
17859;DHT22;35426;30.698;104.050;2023-02-28T08:55:06;15.40;99.90
17859;DHT22;35426;30.698;104.050;2023-02-28T08:57:45;15.40;99.90
17859;DHT22;35426;30.698;104.050;2023-02-28T09:00:25;15.50;99.90
17859;DHT22;35426;30.698;104.050;2023-02-28T09:03:12;15.50;99.90
17859;DHT22;35426;30.698;104.050;2023-02-28T09:05:57;15.40;99.90
17859;DHT22;35426;30.698;104.050;2023-02-28T09:08:35;15.20;99.90
17859;DHT22;35426;30.698;104.050;2023-02-28T09:11:14;15.40;99.90
17859;DHT22;35426;30.698;104.050;2023-02-28T09:13:55;15.50;99.90
17859;DHT22;35426;30.698;104.050;2023-02-28T09:16:38;15.60;99.90
17859;DHT22;35426;30.698;104.050;2023-02-28T09:19:21;15.50;99.90
17859;DHT22;35426;30.698;104.050;2023-02-28T09:22:09;15.30;99.90
17859;DHT22;35426;30.698;104.050;2023-02-28T09:24:46;15.30;99.90
17859;DHT22;35426;30.698;104.050;2023-02-28T09:27:23;15.30;99.90
17859;DHT22;35426;30.698;104.050;2023-02-28T09:29:59;15.20;99.90
17859;DHT22;35426;30.698;104.050;2023-02-28T09:32:38;15.20;99.90
17859;DHT22;35426;30.698;104.050;2023-02-28T09:35:32;15.30;99.90
17859;DHT22;35426;30.698;104.050;2023-02-28T09:38:15;15.30;99.90
17859;DHT22;35426;30.698;104.050;2023-02-28T09:40:53;15.40;99.90
17859;DHT22;35426;30.698;104.050;2023-02-28T09:43:38;15.30;99.90
17859;DHT22;35426;30.698;104.050;2023-02-28T09:46:29;15.30;99.90
17859;DHT22;35426;30.698;104.050;2023-02-28T09:49:11;15.30;99.90
17859;DHT22;35426;30.698;104.050;2023-02-28T09:51:55;15.20;99.90
17859;DHT22;35426;30.698;104.050;2023-02-28T09:54:34;15.20;99.90
17859;DHT22;35426;30.698;104.050;2023-02-28T09:57:17;15.30;99.90
17859;DHT22;35426;30.698;104.050;2023-02-28T10:00:06;15.30;99.90
17859;DHT22;35426;30.698;104.050;2023-02-28T10:06:08;15.40;99.90
17859;DHT22;35426;30.698;104.050;2023-02-28T10:08:56;15.30;99.90
17859;DHT22;35426;30.698;104.050;2023-02-28T10:11:41;15.30;99.90
17859;DHT22;35426;30.698;104.050;2023-02-28T10:14:20;15.40;99.90
17859;DHT22;35426;30.698;104.050;2023-02-28T10:17:01;15.30;99.90
17859;DHT22;35426;30.698;104.050;2023-02-28T10:19:44;15.30;99.90
17859;DHT22;35426;30.698;104.050;2023-02-28T10:22:27;15.20;99.90
17859;DHT22;35426;30.698;104.050;2023-02-28T10:25:19;15.20;99.90
17859;DHT22;35426;30.698;104.050;2023-02-28T10:27:57;15.20;99.90
17859;DHT22;35426;30.698;104.050;2023-02-28T10:30:48;15.10;99.90
17859;DHT22;35426;30.698;104.050;2023-02-28T10:33:29;15.10;99.90
17859;DHT22;35426;30.698;104.050;2023-02-28T10:36:17;15.10;99.90
17859;DHT22;35426;30.698;104.050;2023-02-28T10:38:54;15.10;99.90
17859;DHT22;35426;30.698;104.050;2023-02-28T10:41:36;15.00;99.90
17859;DHT22;35426;30.698;104.050;2023-02-28T10:44:22;15.10;99.90
17859;DHT22;35426;30.698;104.050;2023-02-28T10:47:01;15.00;99.90
17859;DHT22;35426;30.698;104.050;2023-02-28T10:49:38;14.90;99.90
17859;DHT22;35426;30.698;104.050;2023-02-28T10:52:37;15.00;99.90
17859;DHT22;35426;30.698;104.050;2023-02-28T10:55:22;14.90;99.90
17859;DHT22;35426;30.698;104.050;2023-02-28T10:58:23;14.90;99.90
17859;DHT22;35426;30.698;104.050;2023-02-28T11:01:04;14.80;99.90
17859;DHT22;35426;30.698;104.050;2023-02-28T11:03:48;14.80;99.90
17859;DHT22;35426;30.698;104.050;2023-02-28T11:06:28;14.80;99.90
17859;DHT22;35426;30.698;104.050;2023-02-28T11:09:14;14.80;99.90
17859;DHT22;35426;30.698;104.050;2023-02-28T11:11:55;14.80;99.90
17859;DHT22;35426;30.698;104.050;2023-02-28T11:14:40;14.80;99.90
17859;DHT22;35426;30.698;104.050;2023-02-28T11:17:28;14.90;99.90
17859;DHT22;35426;30.698;104.050;2023-02-28T11:20:23;14.80;99.90
17859;DHT22;35426;30.698;104.050;2023-02-28T11:23:04;14.80;99.90
17859;DHT22;35426;30.698;104.050;2023-02-28T11:26:01;14.80;99.90
17859;DHT22;35426;30.698;104.050;2023-02-28T11:28:43;14.80;99.90
17859;DHT22;35426;30.698;104.050;2023-02-28T11:31:24;14.70;99.90
17859;DHT22;35426;30.698;104.050;2023-02-28T11:34:24;14.70;99.90
17859;DHT22;35426;30.698;104.050;2023-02-28T11:37:12;14.70;99.90
17859;DHT22;35426;30.698;104.050;2023-02-28T11:39:49;14.70;99.90
17859;DHT22;35426;30.698;104.050;2023-02-28T11:42:43;14.70;99.90
17859;DHT22;35426;30.698;104.050;2023-02-28T11:45:42;14.60;99.90
17859;DHT22;35426;30.698;104.050;2023-02-28T11:48:27;14.60;99.90
17859;DHT22;35426;30.698;104.050;2023-02-28T11:51:31;14.60;99.90
17859;DHT22;35426;30.698;104.050;2023-02-28T11:54:29;14.60;99.90
17859;DHT22;35426;30.698;104.050;2023-02-28T11:57:24;14.70;99.90
17859;DHT22;35426;30.698;104.050;2023-02-28T12:00:14;14.70;99.90
17859;DHT22;35426;30.698;104.050;2023-02-28T12:03:07;14.70;99.90
17859;DHT22;35426;30.698;104.050;2023-02-28T12:06:14;14.70;99.90
17859;DHT22;35426;30.698;104.050;2023-02-28T12:12:02;14.70;99.90
17859;DHT22;35426;30.698;104.050;2023-02-28T12:18:14;14.70;99.90
17859;DHT22;35426;30.698;104.050;2023-02-28T12:21:14;14.60;99.90
17859;DHT22;35426;30.698;104.050;2023-02-28T12:24:18;14.70;99.90
17859;DHT22;35426;30.698;104.050;2023-02-28T12:27:02;14.70;99.90
17859;DHT22;35426;30.698;104.050;2023-02-28T12:29:53;14.60;99.90
17859;DHT22;35426;30.698;104.050;2023-02-28T12:32:37;14.60;99.90
17859;DHT22;35426;30.698;104.050;2023-02-28T12:35:19;14.60;99.90
17859;DHT22;35426;30.698;104.050;2023-02-28T12:38:05;14.50;99.90
17859;DHT22;35426;30.698;104.050;2023-02-28T12:40:47;14.50;99.90
17859;DHT22;35426;30.698;104.050;2023-02-28T12:43:31;14.40;99.90
17859;DHT22;35426;30.698;104.050;2023-02-28T12:46:14;14.40;99.90
17859;DHT22;35426;30.698;104.050;2023-02-28T12:48:57;14.40;99.90
17859;DHT22;35426;30.698;104.050;2023-02-28T12:51:48;14.50;99.90
17859;DHT22;35426;30.698;104.050;2023-02-28T12:54:33;14.60;99.90
17859;DHT22;35426;30.698;104.050;2023-02-28T12:57:17;14.50;99.90
17859;DHT22;35426;30.698;104.050;2023-02-28T13:00:03;14.40;99.90
17859;DHT22;35426;30.698;104.050;2023-02-28T13:03:14;14.50;99.90
17859;DHT22;35426;30.698;104.050;2023-02-28T13:06:27;14.40;99.90
17859;DHT22;35426;30.698;104.050;2023-02-28T13:09:14;14.50;99.90
17859;DHT22;35426;30.698;104.050;2023-02-28T13:12:04;14.40;99.90
17859;DHT22;35426;30.698;104.050;2023-02-28T13:15:00;14.40;99.90
17859;DHT22;35426;30.698;104.050;2023-02-28T13:17:40;14.50;99.90
17859;DHT22;35426;30.698;104.050;2023-02-28T13:20:24;14.50;99.90
17859;DHT22;35426;30.698;104.050;2023-02-28T13:23:39;14.50;99.90
17859;DHT22;35426;30.698;104.050;2023-02-28T13:26:21;14.50;99.90
17859;DHT22;35426;30.698;104.050;2023-02-28T13:29:03;14.40;99.90
17859;DHT22;35426;30.698;104.050;2023-02-28T13:38:49;14.40;99.90
17859;DHT22;35426;30.698;104.050;2023-02-28T13:41:47;14.40;99.90
17859;DHT22;35426;30.698;104.050;2023-02-28T13:48:02;14.60;99.90
17859;DHT22;35426;30.698;104.050;2023-02-28T13:50:41;14.60;99.90
17859;DHT22;35426;30.698;104.050;2023-02-28T13:53:41;14.60;99.90
17859;DHT22;35426;30.698;104.050;2023-02-28T13:56:34;14.50;99.90
17859;DHT22;35426;30.698;104.050;2023-02-28T13:59:25;14.50;99.90
17859;DHT22;35426;30.698;104.050;2023-02-28T14:02:30;14.50;99.90
17859;DHT22;35426;30.698;104.050;2023-02-28T14:05:15;14.60;99.90
17859;DHT22;35426;30.698;104.050;2023-02-28T14:07:52;14.70;99.90
17859;DHT22;35426;30.698;104.050;2023-02-28T14:10:28;14.60;99.90
17859;DHT22;35426;30.698;104.050;2023-02-28T14:13:12;14.60;99.90
17859;DHT22;35426;30.698;104.050;2023-02-28T14:15:55;14.60;99.90
17859;DHT22;35426;30.698;104.050;2023-02-28T14:18:39;14.60;99.90
17859;DHT22;35426;30.698;104.050;2023-02-28T14:21:24;14.60;99.90
17859;DHT22;35426;30.698;104.050;2023-02-28T14:24:40;14.60;99.90
17859;DHT22;35426;30.698;104.050;2023-02-28T14:27:39;14.60;99.90
17859;DHT22;35426;30.698;104.050;2023-02-28T14:33:59;14.60;99.90
17859;DHT22;35426;30.698;104.050;2023-02-28T14:36:48;14.60;99.90
17859;DHT22;35426;30.698;104.050;2023-02-28T14:39:28;14.60;99.90
17859;DHT22;35426;30.698;104.050;2023-02-28T14:42:30;14.60;99.90
17859;DHT22;35426;30.698;104.050;2023-02-28T14:45:25;14.50;99.90
17859;DHT22;35426;30.698;104.050;2023-02-28T14:48:08;14.60;99.90
17859;DHT22;35426;30.698;104.050;2023-02-28T14:50:58;14.60;99.90
17859;DHT22;35426;30.698;104.050;2023-02-28T14:53:39;14.60;99.90
17859;DHT22;35426;30.698;104.050;2023-02-28T14:56:24;14.60;99.90
17859;DHT22;35426;30.698;104.050;2023-02-28T14:59:21;14.60;99.90
17859;DHT22;35426;30.698;104.050;2023-02-28T15:02:33;14.50;99.90
17859;DHT22;35426;30.698;104.050;2023-02-28T15:05:26;14.50;99.90
17859;DHT22;35426;30.698;104.050;2023-02-28T15:08:17;14.50;99.90
17859;DHT22;35426;30.698;104.050;2023-02-28T15:10:59;14.50;99.90
17859;DHT22;35426;30.698;104.050;2023-02-28T15:13:45;14.50;99.90
17859;DHT22;35426;30.698;104.050;2023-02-28T15:16:28;14.50;99.90
17859;DHT22;35426;30.698;104.050;2023-02-28T15:19:17;14.50;99.90
17859;DHT22;35426;30.698;104.050;2023-02-28T15:22:06;14.50;99.90
17859;DHT22;35426;30.698;104.050;2023-02-28T15:24:56;14.50;99.90
17859;DHT22;35426;30.698;104.050;2023-02-28T15:27:42;14.50;99.90
17859;DHT22;35426;30.698;104.050;2023-02-28T15:30:24;14.50;99.90
17859;DHT22;35426;30.698;104.050;2023-02-28T15:33:19;14.40;99.90
17859;DHT22;35426;30.698;104.050;2023-02-28T15:36:14;14.40;99.90
17859;DHT22;35426;30.698;104.050;2023-02-28T15:38:54;14.40;99.90
17859;DHT22;35426;30.698;104.050;2023-02-28T15:41:48;14.40;99.90
17859;DHT22;35426;30.698;104.050;2023-02-28T15:44:32;14.40;99.90
17859;DHT22;35426;30.698;104.050;2023-02-28T15:47:21;14.30;99.90
17859;DHT22;35426;30.698;104.050;2023-02-28T15:50:17;14.30;99.90
17859;DHT22;35426;30.698;104.050;2023-02-28T15:52:53;14.30;99.90
17859;DHT22;35426;30.698;104.050;2023-02-28T15:55:33;14.30;99.90
17859;DHT22;35426;30.698;104.050;2023-02-28T15:58:16;14.30;99.90
17859;DHT22;35426;30.698;104.050;2023-02-28T16:01:27;14.30;99.90
17859;DHT22;35426;30.698;104.050;2023-02-28T16:04:20;14.40;99.90
17859;DHT22;35426;30.698;104.050;2023-02-28T16:07:12;14.40;99.90
17859;DHT22;35426;30.698;104.050;2023-02-28T16:09:52;14.30;99.90
17859;DHT22;35426;30.698;104.050;2023-02-28T16:12:31;14.30;99.90
17859;DHT22;35426;30.698;104.050;2023-02-28T16:15:20;14.30;99.90
17859;DHT22;35426;30.698;104.050;2023-02-28T16:18:03;14.30;99.90
17859;DHT22;35426;30.698;104.050;2023-02-28T16:20:43;14.30;99.90
17859;DHT22;35426;30.698;104.050;2023-02-28T16:23:27;14.30;99.90
17859;DHT22;35426;30.698;104.050;2023-02-28T16:26:06;14.30;99.90
17859;DHT22;35426;30.698;104.050;2023-02-28T16:28:52;14.20;99.90
17859;DHT22;35426;30.698;104.050;2023-02-28T16:31:46;14.30;99.90
17859;DHT22;35426;30.698;104.050;2023-02-28T16:34:29;14.20;99.90
17859;DHT22;35426;30.698;104.050;2023-02-28T16:37:16;14.20;99.90
17859;DHT22;35426;30.698;104.050;2023-02-28T16:39:55;14.30;99.90
17859;DHT22;35426;30.698;104.050;2023-02-28T16:42:33;14.20;99.90
17859;DHT22;35426;30.698;104.050;2023-02-28T16:45:17;14.20;99.90
17859;DHT22;35426;30.698;104.050;2023-02-28T16:47:58;14.20;99.90
17859;DHT22;35426;30.698;104.050;2023-02-28T16:50:38;14.20;99.90
17859;DHT22;35426;30.698;104.050;2023-02-28T16:53:22;14.20;99.90
17859;DHT22;35426;30.698;104.050;2023-02-28T16:56:04;14.20;99.90
17859;DHT22;35426;30.698;104.050;2023-02-28T16:58:43;14.20;99.90
17859;DHT22;35426;30.698;104.050;2023-02-28T17:01:22;14.10;99.90
17859;DHT22;35426;30.698;104.050;2023-02-28T17:04:12;14.20;99.90
17859;DHT22;35426;30.698;104.050;2023-02-28T17:06:55;14.20;99.90
17859;DHT22;35426;30.698;104.050;2023-02-28T17:09:31;14.20;99.90
17859;DHT22;35426;30.698;104.050;2023-02-28T17:12:14;14.20;99.90
17859;DHT22;35426;30.698;104.050;2023-02-28T17:14:50;14.10;99.90
17859;DHT22;35426;30.698;104.050;2023-02-28T17:17:27;14.20;99.90
17859;DHT22;35426;30.698;104.050;2023-02-28T17:20:09;14.20;99.90
17859;DHT22;35426;30.698;104.050;2023-02-28T17:22:47;14.20;99.90